createdAt,value
2023-04-25T00:00:48.278Z,1.90
2023-04-25T00:01:48.287Z,2.30
2023-04-25T00:02:48.325Z,1.60
2023-04-25T00:03:48.561Z,2.50
2023-04-25T00:04:48.615Z,2.30
2023-04-25T00:05:48.288Z,1.20
2023-04-25T00:06:48.216Z,1.30
2023-04-25T00:07:48.229Z,1.90
2023-04-25T00:08:48.193Z,1.90
2023-04-25T00:09:48.220Z,1.90
2023-04-25T00:10:48.198Z,1.60
2023-04-25T00:11:48.162Z,1.90
2023-04-25T00:12:48.150Z,1.40
2023-04-25T00:13:48.361Z,1.80
2023-04-25T00:14:48.139Z,2.00
2023-04-25T00:15:48.189Z,1.70
2023-04-25T00:16:48.128Z,1.90
2023-04-25T00:17:48.196Z,2.40
2023-04-25T00:18:48.099Z,1.40
2023-04-25T00:19:48.084Z,2.00
2023-04-25T00:20:48.166Z,1.90
2023-04-25T00:21:48.059Z,1.20
2023-04-25T00:22:48.045Z,1.70
2023-04-25T00:23:48.294Z,2.20
2023-04-25T00:24:48.025Z,2.10
2023-04-25T00:25:48.023Z,1.40
2023-04-25T00:26:47.997Z,1.50
2023-04-25T00:27:47.998Z,2.00
2023-04-25T00:28:47.979Z,1.90
2023-04-25T00:29:47.991Z,1.50
2023-04-25T00:30:47.954Z,1.50
2023-04-25T00:31:47.975Z,1.70
2023-04-25T00:32:47.946Z,1.70
2023-04-25T00:33:48.052Z,1.70
2023-04-25T00:34:47.898Z,1.70
2023-04-25T00:35:47.904Z,1.60
2023-04-25T00:36:47.872Z,2.10
2023-04-25T00:37:47.889Z,2.00
2023-04-25T00:38:47.850Z,1.60
2023-04-25T00:39:47.854Z,2.10
2023-04-25T00:40:47.859Z,1.80
2023-04-25T00:41:47.836Z,1.30
2023-04-25T00:42:47.824Z,1.80
2023-04-25T00:43:47.988Z,1.80
2023-04-25T00:44:47.805Z,2.10
2023-04-25T00:45:47.794Z,2.40
2023-04-25T00:46:47.777Z,1.90
2023-04-25T00:47:47.821Z,2.10
2023-04-25T00:48:47.754Z,2.30
2023-04-25T00:49:47.730Z,1.90
2023-04-25T00:50:47.752Z,1.80
2023-04-25T00:51:47.721Z,1.80
2023-04-25T00:52:47.730Z,1.80
2023-04-25T00:53:47.720Z,2.10
2023-04-25T00:54:47.680Z,1.90
2023-04-25T00:55:47.672Z,1.60
2023-04-25T00:56:47.664Z,2.10
2023-04-25T00:57:47.653Z,1.80
2023-04-25T00:58:47.627Z,1.50
2023-04-25T00:59:47.636Z,1.40
2023-04-25T01:00:47.672Z,1.40
2023-04-25T01:01:47.639Z,1.70
2023-04-25T01:02:47.725Z,1.70
2023-04-25T01:03:47.717Z,1.70
2023-04-25T01:04:47.561Z,1.50
2023-04-25T01:05:47.562Z,2.20
2023-04-25T01:06:47.603Z,1.60
2023-04-25T01:07:47.540Z,1.70
2023-04-25T01:08:47.535Z,2.30
2023-04-25T01:09:47.508Z,2.00
2023-04-25T01:10:47.510Z,2.30
2023-04-25T01:11:47.505Z,1.60
2023-04-25T01:12:47.492Z,2.10
2023-04-25T01:13:47.594Z,2.00
2023-04-25T01:14:47.461Z,1.40
2023-04-25T01:15:47.445Z,1.50
2023-04-25T01:16:47.533Z,2.00
2023-04-25T01:17:47.557Z,2.00
2023-04-25T01:18:47.413Z,2.10
2023-04-25T01:19:47.391Z,2.00
2023-04-25T01:20:47.396Z,1.80
2023-04-25T01:21:47.386Z,1.70
2023-04-25T01:22:47.362Z,2.20
2023-04-25T01:23:47.400Z,2.80
2023-04-25T01:24:47.349Z,2.10
2023-04-25T01:25:47.342Z,2.20
2023-04-25T01:26:47.328Z,1.90
2023-04-25T01:27:47.328Z,1.40
2023-04-25T01:28:47.293Z,2.00
2023-04-25T01:29:47.298Z,2.00
2023-04-25T01:30:47.287Z,1.80
2023-04-25T01:31:47.297Z,1.50
2023-04-25T01:32:47.258Z,2.00
2023-04-25T01:33:47.290Z,2.10
2023-04-25T01:34:47.235Z,1.60
2023-04-25T01:35:47.216Z,1.80
2023-04-25T01:36:47.232Z,1.20
2023-04-25T01:37:47.278Z,2.00
2023-04-25T01:38:47.183Z,2.10
2023-04-25T01:39:47.191Z,1.80
2023-04-25T01:40:47.166Z,1.90
2023-04-25T01:41:47.163Z,2.00
2023-04-25T01:42:47.165Z,1.90
2023-04-25T01:43:47.126Z,1.80
2023-04-25T01:44:47.140Z,2.40
2023-04-25T01:45:47.183Z,1.50
2023-04-25T01:46:47.105Z,2.70
2023-04-25T01:47:47.116Z,1.90
2023-04-25T01:48:47.076Z,1.70
2023-04-25T01:49:47.100Z,1.60
2023-04-25T01:50:47.062Z,2.30
2023-04-25T01:51:47.055Z,1.40
2023-04-25T01:52:47.031Z,1.40
2023-04-25T01:53:47.027Z,1.50
2023-04-25T01:54:47.033Z,1.90
2023-04-25T01:55:47.015Z,1.50
2023-04-25T01:56:46.997Z,2.00
2023-04-25T01:57:46.980Z,1.60
2023-04-25T01:58:46.973Z,1.90
2023-04-25T01:59:46.957Z,1.30
2023-04-25T02:00:46.958Z,2.70
2023-04-25T02:01:46.988Z,1.50
2023-04-25T02:02:47.075Z,1.50
2023-04-25T02:03:46.984Z,1.60
2023-04-25T02:04:46.916Z,2.00
2023-04-25T02:05:46.937Z,1.50
2023-04-25T02:06:46.904Z,2.10
2023-04-25T02:07:46.881Z,1.30
2023-04-25T02:08:46.842Z,1.70
2023-04-25T02:09:46.861Z,1.40
2023-04-25T02:10:46.823Z,2.30
2023-04-25T02:11:46.825Z,1.80
2023-04-25T02:12:46.882Z,2.00
2023-04-25T02:13:46.809Z,1.60
2023-04-25T02:14:46.786Z,1.60
2023-04-25T02:15:46.871Z,2.10
2023-04-25T02:16:46.890Z,2.30
2023-04-25T02:17:46.777Z,1.60
2023-04-25T02:18:46.749Z,1.60
2023-04-25T02:19:47.006Z,1.60
2023-04-25T02:20:46.714Z,1.60
2023-04-25T02:21:46.759Z,2.00
2023-04-25T02:22:46.727Z,1.70
2023-04-25T02:23:46.682Z,1.50
2023-04-25T02:24:46.676Z,2.30
2023-04-25T02:25:46.671Z,2.80
2023-04-25T02:26:46.664Z,1.80
2023-04-25T02:27:46.655Z,1.80
2023-04-25T02:28:46.626Z,2.00
2023-04-25T02:29:46.625Z,1.80
2023-04-25T02:30:46.617Z,2.20
2023-04-25T02:31:46.710Z,1.70
2023-04-25T02:32:46.636Z,1.50
2023-04-25T02:33:46.568Z,1.40
2023-04-25T02:34:46.570Z,2.00
2023-04-25T02:35:46.567Z,1.60
2023-04-25T02:36:46.549Z,2.10
2023-04-25T02:37:46.561Z,2.50
2023-04-25T02:38:46.532Z,1.50
2023-04-25T02:39:46.517Z,1.60
2023-04-25T02:40:46.505Z,1.40
2023-04-25T02:41:46.498Z,2.00
2023-04-25T02:42:46.499Z,1.40
2023-04-25T02:43:46.463Z,1.80
2023-04-25T02:44:46.444Z,1.80
2023-04-25T02:45:46.452Z,1.70
2023-04-25T02:46:46.499Z,2.40
2023-04-25T02:47:46.472Z,2.00
2023-04-25T02:48:46.416Z,1.60
2023-04-25T02:49:46.405Z,1.70
2023-04-25T02:50:46.387Z,1.90
2023-04-25T02:51:46.384Z,1.40
2023-04-25T02:52:46.351Z,2.30
2023-04-25T02:53:46.404Z,1.60
2023-04-25T02:54:46.332Z,2.50
2023-04-25T02:55:46.318Z,1.80
2023-04-25T02:56:46.324Z,2.20
2023-04-25T02:57:46.308Z,1.80
2023-04-25T02:58:46.301Z,2.10
2023-04-25T02:59:46.291Z,1.90
2023-04-25T03:00:46.308Z,1.50
2023-04-25T03:01:46.254Z,2.70
2023-04-25T03:02:46.303Z,1.60
2023-04-25T03:03:46.362Z,1.80
2023-04-25T03:04:46.243Z,2.70
2023-04-25T03:05:46.216Z,1.70
2023-04-25T03:06:46.232Z,2.70
2023-04-25T03:07:46.203Z,2.20
2023-04-25T03:08:46.175Z,2.30
2023-04-25T03:09:46.193Z,2.40
2023-04-25T03:10:46.188Z,2.30
2023-04-25T03:11:46.158Z,1.80
2023-04-25T03:12:46.157Z,2.50
2023-04-25T03:13:46.117Z,2.60
2023-04-25T03:14:46.114Z,2.60
2023-04-25T03:15:46.113Z,1.60
2023-04-25T03:16:46.110Z,2.00
2023-04-25T03:17:46.117Z,2.00
2023-04-25T03:18:46.089Z,2.00
2023-04-25T03:19:46.054Z,2.20
2023-04-25T03:20:46.069Z,1.80
2023-04-25T03:21:46.065Z,2.30
2023-04-25T03:22:46.023Z,1.80
2023-04-25T03:23:46.032Z,1.30
2023-04-25T03:24:46.025Z,2.40
2023-04-25T03:25:46.036Z,2.40
2023-04-25T03:26:45.990Z,1.80
2023-04-25T03:27:45.980Z,2.20
2023-04-25T03:28:45.966Z,2.20
2023-04-25T03:29:45.957Z,1.80
2023-04-25T03:30:45.961Z,2.10
2023-04-25T03:31:45.962Z,2.00
2023-04-25T03:32:45.929Z,2.60
2023-04-25T03:33:45.911Z,1.90
2023-04-25T03:34:45.887Z,2.10
2023-04-25T03:35:45.885Z,1.60
2023-04-25T03:36:45.889Z,2.70
2023-04-25T03:37:45.866Z,2.10
2023-04-25T03:38:45.848Z,2.00
2023-04-25T03:39:45.844Z,2.10
2023-04-25T03:40:45.834Z,1.80
2023-04-25T03:41:45.844Z,1.50
2023-04-25T03:42:45.822Z,1.80
2023-04-25T03:43:45.810Z,1.80
2023-04-25T03:44:45.798Z,2.70
2023-04-25T03:45:45.805Z,2.40
2023-04-25T03:46:45.762Z,2.50
2023-04-25T03:47:45.836Z,1.30
2023-04-25T03:48:45.740Z,2.00
2023-04-25T03:49:45.719Z,2.40
2023-04-25T03:50:45.717Z,2.80
2023-04-25T03:51:45.714Z,1.80
2023-04-25T03:52:45.705Z,2.50
2023-04-25T03:53:45.693Z,2.80
2023-04-25T03:54:45.683Z,2.70
2023-04-25T03:55:45.675Z,1.70
2023-04-25T03:56:45.658Z,1.90
2023-04-25T03:57:45.678Z,2.00
2023-04-25T03:58:45.658Z,2.20
2023-04-25T03:59:45.602Z,2.20
2023-04-25T04:00:45.616Z,2.40
2023-04-25T04:01:45.613Z,2.00
2023-04-25T04:02:45.929Z,3.00
2023-04-25T04:03:45.888Z,2.10
2023-04-25T04:04:45.854Z,3.10
2023-04-25T04:05:45.584Z,1.90
2023-04-25T04:06:45.544Z,2.00
2023-04-25T04:07:45.540Z,2.20
2023-04-25T04:08:45.530Z,2.50
2023-04-25T04:09:45.529Z,3.90
2023-04-25T04:10:45.492Z,2.00
2023-04-25T04:11:45.485Z,2.60
2023-04-25T04:12:45.463Z,1.50
2023-04-25T04:13:45.486Z,2.30
2023-04-25T04:14:45.455Z,1.80
2023-04-25T04:15:45.474Z,3.00
2023-04-25T04:16:45.420Z,2.90
2023-04-25T04:17:45.440Z,2.90
2023-04-25T04:18:45.407Z,2.50
2023-04-25T04:19:45.394Z,2.30
2023-04-25T04:20:45.393Z,2.30
2023-04-25T04:21:45.384Z,2.20
2023-04-25T04:22:45.370Z,2.60
2023-04-25T04:23:45.346Z,2.40
2023-04-25T04:24:45.342Z,2.00
2023-04-25T04:25:45.332Z,2.00
2023-04-25T04:26:45.319Z,1.90
2023-04-25T04:27:45.305Z,2.20
2023-04-25T04:28:45.299Z,1.90
2023-04-25T04:29:45.330Z,2.20
2023-04-25T04:30:45.269Z,2.20
2023-04-25T04:31:45.375Z,2.50
2023-04-25T04:32:45.267Z,2.10
2023-04-25T04:33:45.229Z,3.20
2023-04-25T04:34:45.222Z,2.30
2023-04-25T04:35:45.210Z,2.50
2023-04-25T04:36:45.211Z,2.50
2023-04-25T04:37:45.185Z,2.40
2023-04-25T04:38:45.190Z,1.70
2023-04-25T04:39:45.165Z,2.50
2023-04-25T04:40:45.165Z,2.50
2023-04-25T04:41:45.172Z,1.90
2023-04-25T04:42:45.137Z,2.20
2023-04-25T04:43:45.126Z,2.30
2023-04-25T04:44:45.113Z,2.10
2023-04-25T04:45:45.119Z,1.90
2023-04-25T04:46:45.106Z,2.40
2023-04-25T04:47:45.113Z,2.70
2023-04-25T04:48:45.064Z,3.40
2023-04-25T04:49:45.050Z,2.90
2023-04-25T04:50:45.046Z,2.10
2023-04-25T04:51:45.027Z,3.10
2023-04-25T04:52:45.035Z,2.70
2023-04-25T04:53:44.998Z,2.20
2023-04-25T04:54:44.997Z,3.20
2023-04-25T04:55:45.005Z,2.00
2023-04-25T04:56:44.974Z,2.50
2023-04-25T04:57:44.960Z,1.70
2023-04-25T04:58:44.966Z,2.50
2023-04-25T04:59:44.964Z,2.40
2023-04-25T05:00:44.966Z,2.60
2023-04-25T05:01:44.972Z,2.30
2023-04-25T05:02:45.068Z,2.30
2023-04-25T05:03:45.104Z,2.40
2023-04-25T05:04:44.978Z,2.00
2023-04-25T05:05:44.882Z,1.90
2023-04-25T05:06:46.885Z,2.50
2023-04-25T05:07:44.884Z,2.20
2023-04-25T05:08:44.866Z,3.00
2023-04-25T05:09:44.844Z,1.50
2023-04-25T05:10:44.861Z,2.40
2023-04-25T05:11:44.801Z,2.80
2023-04-25T05:12:44.808Z,1.80
2023-04-25T05:13:44.830Z,1.60
2023-04-25T05:14:44.788Z,3.00
2023-04-25T05:15:44.772Z,2.30
2023-04-25T05:16:44.892Z,3.00
2023-04-25T05:17:44.858Z,2.10
2023-04-25T05:18:44.738Z,1.70
2023-04-25T05:19:44.735Z,2.40
2023-04-25T05:20:44.703Z,2.70
2023-04-25T05:21:44.710Z,2.40
2023-04-25T05:22:44.764Z,2.70
2023-04-25T05:23:44.720Z,2.80
2023-04-25T05:24:44.685Z,1.80
2023-04-25T05:25:44.701Z,2.60
2023-04-25T05:26:44.643Z,3.20
2023-04-25T05:27:44.698Z,2.40
2023-04-25T05:28:44.821Z,2.10
2023-04-25T05:29:52.498Z,2.50
2023-04-25T05:30:44.646Z,2.60
2023-04-25T05:31:44.644Z,2.40
2023-04-25T05:32:44.599Z,2.20
2023-04-25T05:33:44.601Z,2.20
2023-04-25T05:34:44.620Z,2.30
2023-04-25T05:35:44.545Z,2.20
2023-04-25T05:36:44.552Z,2.30
2023-04-25T05:37:44.542Z,1.80
2023-04-25T05:38:44.549Z,2.10
2023-04-25T05:39:44.524Z,1.70
2023-04-25T05:40:44.491Z,2.40
2023-04-25T05:41:44.493Z,2.30
2023-04-25T05:42:44.503Z,1.80
2023-04-25T05:43:44.478Z,1.90
2023-04-25T05:44:44.484Z,2.20
2023-04-25T05:45:44.481Z,2.20
2023-04-25T05:46:44.421Z,2.50
2023-04-25T05:47:44.517Z,2.50
2023-04-25T05:48:44.424Z,1.70
2023-04-25T05:49:44.424Z,2.80
2023-04-25T05:50:44.386Z,2.10
2023-04-25T05:51:44.378Z,2.30
2023-04-25T05:52:44.410Z,2.40
2023-04-25T05:53:44.362Z,2.60
2023-04-25T05:54:44.401Z,2.70
2023-04-25T05:55:44.344Z,2.50
2023-04-25T05:56:44.310Z,2.20
2023-04-25T05:57:44.298Z,1.90
2023-04-25T05:58:44.303Z,2.30
2023-04-25T05:59:44.297Z,2.60
2023-04-25T06:00:44.561Z,2.80
2023-04-25T06:01:44.333Z,2.20
2023-04-25T06:02:44.360Z,2.20
2023-04-25T06:03:44.450Z,2.30
2023-04-25T06:04:44.344Z,2.30
2023-04-25T06:05:44.295Z,2.00
2023-04-25T06:06:45.117Z,2.60
2023-04-25T06:07:44.204Z,2.40
2023-04-25T06:08:45.005Z,2.30
2023-04-25T06:09:44.147Z,2.60
2023-04-25T06:10:44.136Z,2.00
2023-04-25T06:11:44.150Z,2.70
2023-04-25T06:12:44.159Z,2.70
2023-04-25T06:13:44.972Z,2.40
2023-04-25T06:14:44.136Z,2.60
2023-04-25T06:15:44.160Z,3.10
2023-04-25T06:16:44.146Z,2.50
2023-04-25T06:17:44.130Z,2.70
2023-04-25T06:18:44.082Z,2.10
2023-04-25T06:19:45.535Z,2.00
2023-04-25T06:20:44.051Z,2.90
2023-04-25T06:21:44.097Z,2.80
2023-04-25T06:22:44.022Z,2.10
2023-04-25T06:23:43.997Z,2.40
2023-04-25T06:24:44.041Z,2.70
2023-04-25T06:25:44.003Z,2.70
2023-04-25T06:26:44.010Z,2.70
2023-04-25T06:27:43.976Z,2.30
2023-04-25T06:28:43.939Z,1.80
2023-04-25T06:29:43.972Z,2.10
2023-04-25T06:30:43.924Z,3.60
2023-04-25T06:31:43.975Z,2.50
2023-04-25T06:32:43.971Z,2.40
2023-04-25T06:33:43.938Z,2.70
2023-04-25T06:34:43.954Z,2.50
2023-04-25T06:35:43.894Z,2.70
2023-04-25T06:36:43.872Z,2.80
2023-04-25T06:37:43.989Z,2.20
2023-04-25T06:38:43.835Z,3.10
2023-04-25T06:39:43.842Z,2.30
2023-04-25T06:40:43.974Z,2.10
2023-04-25T06:41:43.815Z,2.50
2023-04-25T06:42:43.809Z,2.70
2023-04-25T06:43:43.783Z,2.80
2023-04-25T06:44:43.781Z,2.10
2023-04-25T06:45:44.780Z,3.30
2023-04-25T06:46:43.782Z,3.40
2023-04-25T06:47:43.796Z,2.90
2023-04-25T06:48:43.759Z,2.60
2023-04-25T06:49:43.730Z,2.90
2023-04-25T06:50:43.737Z,2.00
2023-04-25T06:51:43.764Z,2.70
2023-04-25T06:52:43.668Z,2.00
2023-04-25T06:53:43.812Z,2.80
2023-04-25T06:54:43.741Z,2.90
2023-04-25T06:55:43.733Z,2.10
2023-04-25T06:56:43.659Z,2.50
2023-04-25T06:57:43.630Z,2.10
2023-04-25T06:58:43.730Z,2.70
2023-04-25T06:59:43.663Z,2.30
2023-04-25T07:00:43.708Z,2.20
2023-04-25T07:01:43.588Z,2.20
2023-04-25T07:02:43.727Z,2.60
2023-04-25T07:03:43.805Z,3.00
2023-04-25T07:04:43.656Z,1.80
2023-04-25T07:05:43.551Z,2.20
2023-04-25T07:06:43.609Z,3.10
2023-04-25T07:07:43.524Z,2.00
2023-04-25T07:08:43.599Z,2.60
2023-04-25T07:09:43.514Z,2.90
2023-04-25T07:10:43.497Z,3.20
2023-04-25T07:11:43.516Z,2.50
2023-04-25T07:12:43.483Z,3.20
2023-04-25T07:13:43.463Z,3.20
2023-04-25T07:14:43.483Z,3.40
2023-04-25T07:15:43.436Z,3.20
2023-04-25T07:16:43.505Z,3.20
2023-04-25T07:17:43.469Z,2.90
2023-04-25T07:18:43.490Z,2.60
2023-04-25T07:19:43.420Z,2.90
2023-04-25T07:20:43.389Z,3.20
2023-04-25T07:21:43.396Z,2.90
2023-04-25T07:22:43.456Z,3.20
2023-04-25T07:23:43.336Z,2.20
2023-04-25T07:24:43.353Z,3.30
2023-04-25T07:25:43.352Z,3.40
2023-04-25T07:26:43.405Z,2.70
2023-04-25T07:27:43.296Z,3.20
2023-04-25T07:28:43.274Z,2.50
2023-04-25T07:29:43.324Z,2.90
2023-04-25T07:30:44.038Z,2.30
2023-04-25T07:31:43.570Z,2.20
2023-04-25T07:32:43.311Z,2.30
2023-04-25T07:33:43.217Z,2.50
2023-04-25T07:34:43.236Z,2.40
2023-04-25T07:35:43.229Z,2.70
2023-04-25T07:36:43.260Z,2.50
2023-04-25T07:37:43.194Z,2.10
2023-04-25T07:38:44.035Z,2.20
2023-04-25T07:39:43.189Z,2.50
2023-04-25T07:40:43.167Z,2.70
2023-04-25T07:41:43.194Z,2.40
2023-04-25T07:42:43.164Z,2.30
2023-04-25T07:43:43.112Z,2.40
2023-04-25T07:44:43.117Z,2.60
2023-04-25T07:45:43.100Z,2.60
2023-04-25T07:46:43.068Z,2.40
2023-04-25T07:47:43.102Z,2.30
2023-04-25T07:48:43.088Z,2.20
2023-04-25T07:49:43.066Z,2.30
2023-04-25T07:50:43.117Z,2.10
2023-04-25T07:51:43.006Z,2.50
2023-04-25T07:52:43.026Z,2.20
2023-04-25T07:53:43.549Z,2.70
2023-04-25T07:54:43.023Z,2.10
2023-04-25T07:55:43.048Z,2.60
2023-04-25T07:56:51.934Z,2.20
2023-04-25T07:57:43.985Z,2.30
2023-04-25T07:58:43.076Z,2.30
2023-04-25T07:59:42.922Z,2.40
2023-04-25T08:00:42.973Z,2.60
2023-04-25T08:01:42.990Z,2.20
2023-04-25T08:02:43.032Z,2.40
2023-04-25T08:03:43.234Z,2.20
2023-04-25T08:04:43.008Z,2.20
2023-04-25T08:05:42.992Z,2.50
2023-04-25T08:06:43.240Z,2.30
2023-04-25T08:07:42.856Z,1.90
2023-04-25T08:08:42.846Z,1.70
2023-04-25T08:09:43.081Z,1.90
2023-04-25T08:10:42.994Z,1.50
2023-04-25T08:11:42.882Z,1.50
2023-04-25T08:12:42.800Z,1.80
2023-04-25T08:13:42.798Z,1.50
2023-04-25T08:14:43.032Z,1.70
2023-04-25T08:15:42.891Z,2.00
2023-04-25T08:16:42.753Z,1.50
2023-04-25T08:17:42.912Z,1.70
2023-04-25T08:18:42.837Z,2.10
2023-04-25T08:19:42.739Z,1.30
2023-04-25T08:20:42.726Z,1.70
2023-04-25T08:21:42.694Z,1.70
2023-04-25T08:22:42.697Z,1.80
2023-04-25T08:23:42.664Z,1.30
2023-04-25T08:24:42.691Z,1.40
2023-04-25T08:25:42.707Z,1.70
2023-04-25T08:26:42.801Z,1.50
2023-04-25T08:27:42.631Z,1.90
2023-04-25T08:28:42.698Z,1.90
2023-04-25T08:29:42.718Z,2.00
2023-04-25T08:30:42.628Z,1.90
2023-04-25T08:31:42.703Z,1.90
2023-04-25T08:32:43.051Z,1.70
2023-04-25T08:33:42.834Z,1.60
2023-04-25T08:34:42.608Z,1.40
2023-04-25T08:35:42.535Z,1.60
2023-04-25T08:36:43.123Z,2.10
2023-04-25T08:37:42.521Z,1.20
2023-04-25T08:38:42.503Z,2.00
2023-04-25T08:39:43.046Z,1.60
2023-04-25T08:40:42.489Z,1.80
2023-04-25T08:41:42.486Z,1.70
2023-04-25T08:42:42.470Z,1.80
2023-04-25T08:43:42.443Z,1.50
2023-04-25T08:44:42.471Z,1.80
2023-04-25T08:45:42.452Z,1.70
2023-04-25T08:46:42.566Z,1.90
2023-04-25T08:47:42.655Z,1.50
2023-04-25T08:48:42.523Z,1.40
2023-04-25T08:49:42.386Z,1.40
2023-04-25T08:50:42.547Z,1.40
2023-04-25T08:51:42.357Z,1.50
2023-04-25T08:52:42.397Z,1.30
2023-04-25T08:53:43.387Z,1.20
2023-04-25T08:54:42.459Z,1.50
2023-04-25T08:55:42.401Z,1.40
2023-04-25T08:56:42.289Z,1.80
2023-04-25T08:57:42.285Z,1.70
2023-04-25T08:58:42.529Z,1.30
2023-04-25T08:59:42.284Z,1.60
2023-04-25T09:00:42.780Z,1.70
2023-04-25T09:01:42.610Z,1.20
2023-04-25T09:02:42.338Z,1.60
2023-04-25T09:03:42.347Z,1.20
2023-04-25T09:04:42.232Z,1.90
2023-04-25T09:05:42.228Z,1.70
2023-04-25T09:06:42.209Z,1.50
2023-04-25T09:07:42.203Z,1.30
2023-04-25T09:08:42.170Z,1.50
2023-04-25T09:09:43.049Z,1.50
2023-04-25T09:10:42.243Z,1.90
2023-04-25T09:11:42.135Z,1.80
2023-04-25T09:12:42.196Z,1.90
2023-04-25T09:13:42.465Z,1.60
2023-04-25T09:14:42.185Z,1.70
2023-04-25T09:15:42.164Z,1.40
2023-04-25T09:16:42.116Z,1.60
2023-04-25T09:17:42.647Z,1.60
2023-04-25T09:18:48.388Z,1.80
2023-04-25T09:19:43.110Z,1.40
2023-04-25T09:20:59.514Z,1.80
2023-04-25T09:21:43.018Z,1.20
2023-04-25T09:22:42.065Z,1.40
2023-04-25T09:23:42.062Z,1.80
2023-04-25T09:24:41.999Z,1.70
2023-04-25T09:25:41.968Z,1.20
2023-04-25T09:26:41.999Z,1.10
2023-04-25T09:27:41.964Z,1.10
2023-04-25T09:28:42.650Z,1.40
2023-04-25T09:29:42.211Z,1.40
2023-04-25T09:30:41.992Z,0.90
2023-04-25T09:31:42.011Z,1.50
2023-04-25T09:32:41.962Z,1.40
2023-04-25T09:33:41.950Z,1.80
2023-04-25T09:34:41.888Z,1.30
2023-04-25T09:35:41.885Z,1.40
2023-04-25T09:36:41.879Z,1.00
2023-04-25T09:37:41.943Z,1.20
2023-04-25T09:38:42.624Z,1.50
2023-04-25T09:39:41.875Z,1.20
2023-04-25T09:40:41.852Z,1.40
2023-04-25T09:41:41.838Z,1.50
2023-04-25T09:42:41.919Z,1.30
2023-04-25T09:43:42.059Z,1.30
2023-04-25T09:44:42.541Z,1.60
2023-04-25T09:45:41.863Z,1.20
2023-04-25T09:46:41.925Z,1.40
2023-04-25T09:47:42.559Z,1.00
2023-04-25T09:48:41.731Z,1.50
2023-04-25T09:49:41.765Z,1.40
2023-04-25T09:50:41.734Z,1.80
2023-04-25T09:51:41.692Z,1.30
2023-04-25T09:52:41.705Z,1.10
2023-04-25T09:53:42.537Z,1.10
2023-04-25T09:54:41.696Z,1.20
2023-04-25T09:55:41.673Z,1.50
2023-04-25T09:56:41.736Z,1.20
2023-04-25T09:57:41.620Z,1.40
2023-04-25T09:58:42.510Z,1.40
2023-04-25T09:59:41.638Z,1.40
2023-04-25T10:00:41.648Z,1.60
2023-04-25T10:01:41.719Z,1.20
2023-04-25T10:02:41.746Z,1.20
2023-04-25T10:03:41.825Z,1.40
2023-04-25T10:04:41.595Z,1.20
2023-04-25T10:05:41.617Z,1.80
2023-04-25T10:06:41.550Z,1.50
2023-04-25T10:07:41.520Z,1.40
2023-04-25T10:08:41.551Z,1.20
2023-04-25T10:09:41.565Z,1.50
2023-04-25T10:10:41.503Z,1.30
2023-04-25T10:11:41.450Z,1.80
2023-04-25T10:12:41.533Z,1.40
2023-04-25T10:13:41.441Z,1.80
2023-04-25T10:14:42.019Z,1.60
2023-04-25T10:15:41.437Z,1.40
2023-04-25T10:16:41.436Z,1.70
2023-04-25T10:17:41.424Z,1.90
2023-04-25T10:18:41.418Z,1.60
2023-04-25T10:19:41.426Z,1.40
2023-04-25T10:20:41.381Z,1.60
2023-04-25T10:21:41.380Z,1.80
2023-04-25T10:22:41.332Z,1.80
2023-04-25T10:23:41.376Z,1.60
2023-04-25T10:24:41.420Z,1.90
2023-04-25T10:25:41.334Z,1.80
2023-04-25T10:26:41.303Z,2.10
2023-04-25T10:27:41.315Z,1.70
2023-04-25T10:28:41.290Z,1.60
2023-04-25T10:29:41.312Z,1.30
2023-04-25T10:30:41.293Z,1.40
2023-04-25T10:31:41.541Z,1.60
2023-04-25T10:32:41.237Z,1.50
2023-04-25T10:33:41.278Z,1.20
2023-04-25T10:34:41.533Z,1.30
2023-04-25T10:35:41.335Z,1.60
2023-04-25T10:36:41.194Z,1.40
2023-04-25T10:37:41.280Z,1.30
2023-04-25T10:38:41.159Z,1.60
2023-04-25T10:39:41.201Z,1.50
2023-04-25T10:40:41.280Z,1.20
2023-04-25T10:41:41.288Z,1.40
2023-04-25T10:42:41.252Z,1.30
2023-04-25T10:43:41.141Z,1.30
2023-04-25T10:44:41.116Z,1.20
2023-04-25T10:45:41.084Z,1.50
2023-04-25T10:46:41.243Z,0.90
2023-04-25T10:47:41.123Z,1.40
2023-04-25T10:48:41.052Z,1.20
2023-04-25T10:49:41.025Z,1.10
2023-04-25T10:50:42.008Z,1.30
2023-04-25T10:51:55.019Z,0.90
2023-04-25T10:52:42.065Z,1.20
2023-04-25T10:53:41.541Z,1.10
2023-04-25T10:54:41.051Z,1.00
2023-04-25T10:55:40.977Z,1.20
2023-04-25T10:56:41.007Z,1.40
2023-04-25T10:57:40.999Z,1.50
2023-04-25T10:58:40.979Z,1.20
2023-04-25T10:59:40.943Z,1.20
2023-04-25T11:00:48.267Z,1.70
2023-04-25T11:01:41.962Z,1.60
2023-04-25T11:02:40.984Z,1.80
2023-04-25T11:03:41.012Z,1.80
2023-04-25T11:04:41.107Z,1.30
2023-04-25T11:05:51.016Z,1.30
2023-04-25T11:06:41.926Z,1.30
2023-04-25T11:07:40.887Z,1.80
2023-04-25T11:08:40.860Z,1.30
2023-04-25T11:09:40.855Z,1.20
2023-04-25T11:10:40.844Z,1.00
2023-04-25T11:11:40.776Z,1.20
2023-04-25T11:12:40.819Z,1.30
2023-04-25T11:13:40.857Z,1.70
2023-04-25T11:15:40.741Z,1.20
2023-04-25T11:16:40.784Z,1.50
2023-04-25T11:17:40.801Z,1.50
2023-04-25T11:18:41.505Z,1.20
2023-04-25T11:19:40.717Z,1.80
2023-04-25T11:20:40.729Z,1.20
2023-04-25T11:21:40.697Z,1.20
2023-04-25T11:22:40.866Z,1.50
2023-04-25T11:23:40.664Z,1.40
2023-04-25T11:24:40.688Z,1.20
2023-04-25T11:25:40.728Z,1.30
2023-04-25T11:26:40.649Z,1.70
2023-04-25T11:27:40.637Z,1.70
2023-04-25T11:28:40.596Z,1.40
2023-04-25T11:29:40.642Z,1.30
2023-04-25T11:30:40.720Z,1.60
2023-04-25T11:31:40.603Z,1.40
2023-04-25T11:32:40.675Z,2.10
2023-04-25T11:33:40.539Z,1.80
2023-04-25T11:34:40.519Z,1.60
2023-04-25T11:35:40.546Z,1.50
2023-04-25T11:36:40.526Z,1.60
2023-04-25T11:37:40.525Z,1.50
2023-04-25T11:38:40.495Z,1.30
2023-04-25T11:39:40.463Z,1.40
2023-04-25T11:40:40.502Z,1.40
2023-04-25T11:41:41.590Z,1.50
2023-04-25T11:42:40.440Z,1.40
2023-04-25T11:43:43.330Z,1.50
2023-04-25T11:44:40.455Z,1.30
2023-04-25T11:45:40.393Z,1.80
2023-04-25T11:46:40.530Z,1.40
2023-04-25T11:47:40.423Z,1.30
2023-04-25T11:48:40.370Z,1.50
2023-04-25T11:49:40.404Z,1.40
2023-04-25T11:50:40.381Z,1.50
2023-04-25T11:51:40.345Z,1.70
2023-04-25T11:52:40.352Z,1.30
2023-04-25T11:53:40.318Z,1.90
2023-04-25T11:54:40.335Z,1.60
2023-04-25T11:55:40.308Z,1.50
2023-04-25T11:56:40.291Z,1.90
2023-04-25T11:57:40.379Z,1.50
2023-04-25T11:58:40.245Z,1.40
2023-04-25T11:59:40.659Z,1.50
2023-04-25T12:00:40.266Z,1.70
2023-04-25T12:01:41.248Z,1.60
2023-04-25T12:02:40.388Z,1.50
2023-04-25T12:03:40.479Z,1.50
2023-04-25T12:04:40.527Z,1.60
2023-04-25T12:05:40.355Z,2.00
2023-04-25T12:06:41.030Z,1.60
2023-04-25T12:07:40.254Z,1.60
2023-04-25T12:08:41.055Z,1.40
2023-04-25T12:09:40.162Z,1.80
2023-04-25T12:10:40.139Z,1.30
2023-04-25T12:11:40.959Z,1.50
2023-04-25T12:12:40.121Z,1.20
2023-04-25T12:13:40.112Z,1.60
2023-04-25T12:14:40.103Z,1.30
2023-04-25T12:15:40.148Z,1.80
2023-04-25T12:16:40.254Z,1.40
2023-04-25T12:17:40.095Z,1.40
2023-04-25T12:18:40.923Z,2.00
2023-04-25T12:19:40.076Z,1.70
2023-04-25T12:20:40.062Z,1.80
2023-04-25T12:21:56.660Z,1.90
2023-04-25T12:22:41.013Z,1.30
2023-04-25T12:23:39.984Z,1.70
2023-04-25T12:24:39.978Z,1.40
2023-04-25T12:25:39.994Z,1.30
2023-04-25T12:26:39.952Z,1.50
2023-04-25T12:27:39.997Z,1.20
2023-04-25T12:28:39.965Z,1.10
2023-04-25T12:29:49.216Z,1.60
2023-04-25T12:30:42.324Z,1.20
2023-04-25T12:31:39.987Z,1.10
2023-04-25T12:32:40.169Z,1.10
2023-04-25T12:33:39.903Z,1.10
2023-04-25T12:34:39.888Z,1.40
2023-04-25T12:35:41.187Z,0.90
2023-04-25T12:36:39.913Z,1.10
2023-04-25T12:37:39.919Z,1.40
2023-04-25T12:38:39.916Z,1.50
2023-04-25T12:39:40.526Z,1.10
2023-04-25T12:40:39.871Z,1.20
2023-04-25T12:41:39.774Z,1.20
2023-04-25T12:42:39.817Z,1.20
2023-04-25T12:43:39.787Z,1.10
2023-04-25T12:44:39.810Z,1.30
2023-04-25T12:45:39.794Z,1.30
2023-04-25T12:46:39.765Z,1.40
2023-04-25T12:47:39.819Z,1.10
2023-04-25T12:48:39.724Z,1.10
2023-04-25T12:49:39.742Z,1.00
2023-04-25T12:50:39.690Z,1.40
2023-04-25T12:51:39.731Z,1.60
2023-04-25T12:52:39.721Z,1.40
2023-04-25T12:53:39.700Z,1.50
2023-04-25T12:54:40.077Z,1.30
2023-04-25T12:55:39.630Z,1.10
2023-04-25T12:56:39.611Z,1.30
2023-04-25T12:57:39.604Z,1.30
2023-04-25T12:58:39.593Z,1.10
2023-04-25T12:59:39.730Z,1.20
2023-04-25T13:00:39.704Z,1.10
2023-04-25T13:01:39.987Z,1.00
2023-04-25T13:02:39.603Z,1.20
2023-04-25T13:03:39.630Z,1.00
2023-04-25T13:04:39.553Z,1.30
2023-04-25T13:05:39.504Z,1.40
2023-04-25T13:06:39.525Z,1.20
2023-04-25T13:07:39.506Z,1.10
2023-04-25T13:08:39.497Z,1.60
2023-04-25T13:09:39.486Z,1.10
2023-04-25T13:10:39.464Z,1.20
2023-04-25T13:11:39.465Z,1.30
2023-04-25T13:12:39.479Z,1.20
2023-04-25T13:13:39.457Z,1.20
2023-04-25T13:14:39.406Z,1.30
2023-04-25T13:15:39.379Z,1.50
2023-04-25T13:16:39.405Z,1.10
2023-04-25T13:17:39.443Z,1.40
2023-04-25T13:18:39.554Z,1.00
2023-04-25T13:19:39.355Z,1.20